EFHKEFHA

Guest
Details From EFHK - Helsinki Vantaa
To EFHA - Halli
Flight Number -
Tags generated
Created
Modified
Stats Distance 92 nm / 171 km
Max Altitude 300 ft / 91 m
Waypoints 3
Social Downloads 0
Likes 0
Share VATSIM

Download

Looking for another format? Having issues loading an existing format? Contact us
Advertisement - Login to hide

Notes

Basic altitude profile: - Ascent Rate: 2500ft/min - Ascent Speed: 250kts - Cruise Altitude: 35000ft - Cruise Speed: 420kts - Descent Rate: 1500ft/min - Descent Speed: 250kts Options: - Use NATs: yes - Use PACOTS: yes - Use low airways: yes - Use high airways: no

Route

EFHK HEL EFHA

ID Type Via Altitude Latitude Longitude Leg Dist Tot Dist Heading (true) Name
O EFHK APT - 0 ft / 0 m 60.32057˚ 24.95267˚ - 0 nm - Helsinki Vantaa
HEL VOR - 300 ft / 91 m 60.33782˚ 24.95373˚ 1 nm 1 nm 2° / 2° HELSINKI VOR-DME
O EFHA APT - 0 ft / 0 m 61.85605˚ 24.78661˚ 91 nm 92 nm 357° / 357° Halli

Altitude Profile

Advertisement - Login to hide

EFHK

Details ICAO EFHK (HEL)
Name Helsinki Vantaa
Region Finland
Timezone Europe/Helsinki (UTC+2.0)
Stats Elevation 179 ft / 55 m (AMSL)
Location 60.320569° 24.952668°
Runways 3
Magnetic Variation 8.954° E

METAR

EFHK 141820Z 13016KT 9999 FEW017 BKN019 00/M03 Q0994 NOSIG

Decode

TAF

TAF TAF EFHK 141725Z 1418/1518 13015KT 9999 BKN018 BECMG 1421/1423 2000 SN BKN008 TEMPO 1423/1506 5000 -SN BECMG 1509/1511 BR BKN005 PROB30 TEMPO 1511/1514 OVC003 BECMG 1515/1518 3000

Decode

Departure Runways

ID Width Length Bearing (true) Bearing (mag) Surface Threshold Offset Overrun Length
04L 197 ft / 60 m 9,817 ft / 2,992 m 47.43° 38.48° Asphalt 800 ft / 244 m 0 ft / 0 m
04R 197 ft / 60 m 10,472 ft / 3,192 m 47.46° 38.51° Asphalt 262 ft / 80 m 0 ft / 0 m
15 197 ft / 60 m 9,497 ft / 2,895 m 153.08° 144.13° Asphalt 0 ft / 0 m 198 ft / 60 m
22L 197 ft / 60 m 10,472 ft / 3,192 m 227.50° 218.55° Asphalt 0 ft / 0 m 197 ft / 60 m
22R 197 ft / 60 m 9,817 ft / 2,992 m 227.46° 218.51° Asphalt 912 ft / 278 m 0 ft / 0 m
33 197 ft / 60 m 9,497 ft / 2,895 m 333.10° 324.15° Asphalt 0 ft / 0 m 197 ft / 60 m

EFHA

Details ICAO EFHA (KEV)
Name Halli
Region Finland
Timezone Europe/Helsinki (UTC+2.0)
Stats Elevation 479 ft / 146 m (AMSL)
Location 61.856049° 24.786613°
Runways 1
Magnetic Variation 9.370° E

METAR

EFHA 141820Z AUTO 14011KT 9999 OVC022 M01/M05 Q0994

Decode

TAF

Not found

Destination Runways

ID Width Length Bearing (true) Bearing (mag) Surface Threshold Offset Overrun Length
08 197 ft / 60 m 8,505 ft / 2,592 m 86.08° 76.71° Asphalt 0 ft / 0 m 830 ft / 253 m
26 197 ft / 60 m 8,505 ft / 2,592 m 266.12° 256.75° Asphalt 0 ft / 0 m 675 ft / 206 m

Approach Navaids

Runway Type Ident Frequency Range Bearing (true) Bearing (mag) Slope Elevation
26 Localiser HA 109.90 MHz 18 nm / 33 km 266.08° 256.71° - 479 ft / 146 m (AMSL)
26 Glidescope HA 109.90 MHz 10 nm / 19 km 266.10° 256.73° 3.00° 473 ft / 144 m (AMSL)

Popular Alternatives